sensor_id;sensor_type;location;lat;lon;timestamp;pressure;altitude;pressure_sealevel;temperature;humidity
33913;BME280;20200;52.084;5.224;2023-04-09T00:00:40;153846.0;;;20.18;40.25
33913;BME280;20200;52.084;5.224;2023-04-09T00:02:17;153820.0;;;20.06;40.36
33913;BME280;20200;52.084;5.224;2023-04-09T00:03:54;153902.0;;;20.39;39.87
33913;BME280;20200;52.084;5.224;2023-04-09T00:07:06;153846.0;;;20.18;40.24
33913;BME280;20200;52.084;5.224;2023-04-09T00:08:43;153810.0;;;20.03;40.44
33913;BME280;20200;52.084;5.224;2023-04-09T00:10:19;153865.0;;;20.25;39.96
33913;BME280;20200;52.084;5.224;2023-04-09T00:13:33;153867.0;;;20.25;39.99
33913;BME280;20200;52.084;5.224;2023-04-09T00:15:10;153857.0;;;20.21;40.01
33913;BME280;20200;52.084;5.224;2023-04-09T00:16:46;153908.0;;;20.41;39.61
33913;BME280;20200;52.084;5.224;2023-04-09T00:18:23;153876.0;;;20.29;39.92
33913;BME280;20200;52.084;5.224;2023-04-09T00:21:36;153924.0;;;20.48;39.54
33913;BME280;20200;52.084;5.224;2023-04-09T00:23:12;153886.0;;;20.34;39.68
33913;BME280;20200;52.084;5.224;2023-04-09T00:24:48;153838.0;;;20.14;40.19
33913;BME280;20200;52.084;5.224;2023-04-09T00:28:01;153889.0;;;20.34;39.58
33913;BME280;20200;52.084;5.224;2023-04-09T00:29:38;153866.0;;;20.25;39.9
33913;BME280;20200;52.084;5.224;2023-04-09T00:31:14;153826.0;;;20.09;39.87
33913;BME280;20200;52.084;5.224;2023-04-09T00:34:27;153849.0;;;20.18;40.29
33913;BME280;20200;52.084;5.224;2023-04-09T00:36:03;153930.0;;;20.5;39.57
33913;BME280;20200;52.084;5.224;2023-04-09T00:37:40;153785.0;;;19.93;40.26
33913;BME280;20200;52.084;5.224;2023-04-09T00:39:17;153767.0;;;19.86;40.76
33913;BME280;20200;52.084;5.224;2023-04-09T00:42:30;153783.0;;;19.93;40.57
33913;BME280;20200;52.084;5.224;2023-04-09T00:44:07;153764.0;;;19.84;40.56
33913;BME280;20200;52.084;5.224;2023-04-09T00:45:43;153690.0;;;19.55;40.96
33913;BME280;20200;52.084;5.224;2023-04-09T00:48:56;153857.0;;;20.21;40.03
33913;BME280;20200;52.084;5.224;2023-04-09T00:50:33;153819.0;;;20.06;40.28
33913;BME280;20200;52.084;5.224;2023-04-09T00:52:10;153813.0;;;20.04;40.21
33913;BME280;20200;52.084;5.224;2023-04-09T00:55:24;153761.0;;;19.84;40.61
33913;BME280;20200;52.084;5.224;2023-04-09T00:57:00;153733.0;;;19.72;40.78
33913;BME280;20200;52.084;5.224;2023-04-09T00:58:36;153798.0;;;19.98;40.32
33913;BME280;20200;52.084;5.224;2023-04-09T01:00:13;153779.0;;;19.91;40.57
33913;BME280;20200;52.084;5.224;2023-04-09T01:03:26;153836.0;;;20.13;40.03
33913;BME280;20200;52.084;5.224;2023-04-09T01:05:04;153750.0;;;19.79;40.68
33913;BME280;20200;52.084;5.224;2023-04-09T01:06:44;153737.0;;;19.75;40.9
33913;BME280;20200;52.084;5.224;2023-04-09T01:10:22;153789.0;;;19.95;40.6
33913;BME280;20200;52.084;5.224;2023-04-09T01:12:05;153855.0;;;20.2;40.03
33913;BME280;20200;52.084;5.224;2023-04-09T01:13:54;153823.0;;;20.09;40.24
33913;BME280;20200;52.084;5.224;2023-04-09T01:15:47;153861.0;;;20.23;40.04
33913;BME280;20200;52.084;5.224;2023-04-09T01:17:36;153866.0;;;20.25;40.03
33913;BME280;20200;52.084;5.224;2023-04-09T01:19:20;153866.0;;;20.25;39.85
33913;BME280;20200;52.084;5.224;2023-04-09T01:21:11;153818.0;;;20.06;40.08
33913;BME280;20200;52.084;5.224;2023-04-09T01:24:49;153787.0;;;19.95;40.31
33913;BME280;20200;52.084;5.224;2023-04-09T01:26:40;153744.0;;;19.77;40.83
33913;BME280;20200;52.084;5.224;2023-04-09T01:28:32;153785.0;;;19.93;40.46
33913;BME280;20200;52.084;5.224;2023-04-09T01:30:10;153811.0;;;20.03;40.21
33913;BME280;20200;52.084;5.224;2023-04-09T01:31:51;153843.0;;;20.16;40.01
33913;BME280;20200;52.084;5.224;2023-04-09T01:35:08;153896.0;;;20.37;39.57
33913;BME280;20200;52.084;5.224;2023-04-09T01:36:49;153855.0;;;20.2;39.85
33913;BME280;20200;52.084;5.224;2023-04-09T01:38:31;153791.0;;;19.95;40.25
33913;BME280;20200;52.084;5.224;2023-04-09T01:40:10;153853.0;;;20.2;39.99
33913;BME280;20200;52.084;5.224;2023-04-09T01:43:25;153742.0;;;19.77;40.67
33913;BME280;20200;52.084;5.224;2023-04-09T01:45:04;153819.0;;;20.06;40.22
33913;BME280;20200;52.084;5.224;2023-04-09T01:46:42;153761.0;;;19.84;40.82
33913;BME280;20200;52.084;5.224;2023-04-09T01:48:21;153789.0;;;19.95;40.28
33913;BME280;20200;52.084;5.224;2023-04-09T01:51:35;153754.0;;;19.8;40.64
33913;BME280;20200;52.084;5.224;2023-04-09T01:53:11;153778.0;;;19.91;40.62
33913;BME280;20200;52.084;5.224;2023-04-09T01:54:48;153792.0;;;19.95;40.25
33913;BME280;20200;52.084;5.224;2023-04-09T01:58:01;153841.0;;;20.16;39.92
33913;BME280;20200;52.084;5.224;2023-04-09T01:59:38;153874.0;;;20.28;39.85
33913;BME280;20200;52.084;5.224;2023-04-09T02:01:19;153864.0;;;20.25;39.79
33913;BME280;20200;52.084;5.224;2023-04-09T02:03:02;153791.0;;;19.95;40.24
33913;BME280;20200;52.084;5.224;2023-04-09T02:06:30;153908.0;;;20.41;39.49
33913;BME280;20200;52.084;5.224;2023-04-09T02:08:11;153897.0;;;20.37;39.6
33913;BME280;20200;52.084;5.224;2023-04-09T02:09:52;153852.0;;;20.2;39.85
33913;BME280;20200;52.084;5.224;2023-04-09T02:11:32;153861.0;;;20.23;39.99
33913;BME280;20200;52.084;5.224;2023-04-09T02:14:52;153772.0;;;19.88;40.68
33913;BME280;20200;52.084;5.224;2023-04-09T02:16:30;153786.0;;;19.93;40.57
33913;BME280;20200;52.084;5.224;2023-04-09T02:18:20;153834.0;;;20.12;40.11
33913;BME280;20200;52.084;5.224;2023-04-09T02:19:56;153950.0;;;20.58;39.15
33913;BME280;20200;52.084;5.224;2023-04-09T02:23:10;153898.0;;;20.38;39.56
33913;BME280;20200;52.084;5.224;2023-04-09T02:24:46;153940.0;;;20.54;39.12
33913;BME280;20200;52.084;5.224;2023-04-09T02:26:23;154007.0;;;20.81;38.72
33913;BME280;20200;52.084;5.224;2023-04-09T02:29:36;154036.0;;;20.92;38.53
33913;BME280;20200;52.084;5.224;2023-04-09T02:31:14;154028.0;;;20.89;38.61
33913;BME280;20200;52.084;5.224;2023-04-09T02:32:51;153995.0;;;20.76;38.71
33913;BME280;20200;52.084;5.224;2023-04-09T02:34:27;153934.0;;;20.52;39.33
33913;BME280;20200;52.084;5.224;2023-04-09T02:37:40;153936.0;;;20.52;39.29
33913;BME280;20200;52.084;5.224;2023-04-09T02:39:17;153958.0;;;20.61;39.24
33913;BME280;20200;52.084;5.224;2023-04-09T02:40:53;153896.0;;;20.37;39.53
33913;BME280;20200;52.084;5.224;2023-04-09T02:44:06;153942.0;;;20.55;39.36
33913;BME280;20200;52.084;5.224;2023-04-09T02:45:42;153901.0;;;20.39;39.74
33913;BME280;20200;52.084;5.224;2023-04-09T02:47:18;153894.0;;;20.36;39.64
33913;BME280;20200;52.084;5.224;2023-04-09T02:50:30;153938.0;;;20.53;39.4
33913;BME280;20200;52.084;5.224;2023-04-09T02:52:08;153875.0;;;20.28;39.9
33913;BME280;20200;52.084;5.224;2023-04-09T02:55:21;153836.0;;;20.13;40.17
33913;BME280;20200;52.084;5.224;2023-04-09T02:58:34;153891.0;;;20.36;39.71
33913;BME280;20200;52.084;5.224;2023-04-09T03:00:11;153895.0;;;20.36;39.6
33913;BME280;20200;52.084;5.224;2023-04-09T03:01:47;153936.0;;;20.53;39.35
33913;BME280;20200;52.084;5.224;2023-04-09T03:05:00;153875.0;;;20.28;39.64
33913;BME280;20200;52.084;5.224;2023-04-09T03:06:36;153873.0;;;20.27;39.83
33913;BME280;20200;52.084;5.224;2023-04-09T03:08:12;153872.0;;;20.27;39.78
33913;BME280;20200;52.084;5.224;2023-04-09T03:11:25;153864.0;;;20.25;39.78
33913;BME280;20200;52.084;5.224;2023-04-09T03:13:01;153974.0;;;20.67;38.81
33913;BME280;20200;52.084;5.224;2023-04-09T03:14:38;153929.0;;;20.5;39.24
33913;BME280;20200;52.084;5.224;2023-04-09T03:16:15;153954.0;;;20.6;39.28
33913;BME280;20200;52.084;5.224;2023-04-09T03:19:27;153926.0;;;20.48;39.56
33913;BME280;20200;52.084;5.224;2023-04-09T03:21:06;154017.0;;;20.85;38.72
33913;BME280;20200;52.084;5.224;2023-04-09T03:22:42;154010.0;;;20.82;38.67
33913;BME280;20200;52.084;5.224;2023-04-09T03:26:00;153845.0;;;20.18;39.89
33913;BME280;20200;52.084;5.224;2023-04-09T03:27:37;153888.0;;;20.34;39.53
33913;BME280;20200;52.084;5.224;2023-04-09T03:29:13;153802.0;;;20.0;40.22
33913;BME280;20200;52.084;5.224;2023-04-09T03:30:49;153868.0;;;20.27;39.53
33913;BME280;20200;52.084;5.224;2023-04-09T03:34:01;153866.0;;;20.25;39.37
33913;BME280;20200;52.084;5.224;2023-04-09T03:35:37;153781.0;;;19.91;39.74
33913;BME280;20200;52.084;5.224;2023-04-09T03:37:13;153832.0;;;20.11;39.72
33913;BME280;20200;52.084;5.224;2023-04-09T03:40:26;153884.0;;;20.32;39.42
33913;BME280;20200;52.084;5.224;2023-04-09T03:42:02;153902.0;;;20.39;39.35
33913;BME280;20200;52.084;5.224;2023-04-09T03:43:39;153875.0;;;20.28;39.57
33913;BME280;20200;52.084;5.224;2023-04-09T03:46:51;153848.0;;;20.18;39.74
33913;BME280;20200;52.084;5.224;2023-04-09T03:48:27;153887.0;;;20.34;39.64
33913;BME280;20200;52.084;5.224;2023-04-09T03:50:04;153882.0;;;20.31;39.71
33913;BME280;20200;52.084;5.224;2023-04-09T03:53:17;153925.0;;;20.48;39.39
33913;BME280;20200;52.084;5.224;2023-04-09T03:54:53;153894.0;;;20.36;39.57
33913;BME280;20200;52.084;5.224;2023-04-09T03:56:29;153819.0;;;20.06;40.29
33913;BME280;20200;52.084;5.224;2023-04-09T03:58:06;153802.0;;;20.0;40.37
33913;BME280;20200;52.084;5.224;2023-04-09T04:01:19;153825.0;;;20.09;40.17
33913;BME280;20200;52.084;5.224;2023-04-09T04:02:56;153809.0;;;20.02;40.0
33913;BME280;20200;52.084;5.224;2023-04-09T04:04:32;153681.0;;;19.52;40.58
33913;BME280;20200;52.084;5.224;2023-04-09T04:07:44;153767.0;;;19.86;40.36
33913;BME280;20200;52.084;5.224;2023-04-09T04:09:20;153690.0;;;19.55;40.58
33913;BME280;20200;52.084;5.224;2023-04-09T04:11:02;153830.0;;;20.11;39.85
33913;BME280;20200;52.084;5.224;2023-04-09T04:12:38;153775.0;;;19.89;40.26
33913;BME280;20200;52.084;5.224;2023-04-09T04:15:52;153730.0;;;19.71;40.46
33913;BME280;20200;52.084;5.224;2023-04-09T04:17:28;153804.0;;;20.0;39.96
33913;BME280;20200;52.084;5.224;2023-04-09T04:19:05;153794.0;;;19.96;40.33
33913;BME280;20200;52.084;5.224;2023-04-09T04:22:18;153850.0;;;20.18;39.87
33913;BME280;20200;52.084;5.224;2023-04-09T04:23:54;153679.0;;;19.52;40.82
33913;BME280;20200;52.084;5.224;2023-04-09T04:25:30;153796.0;;;19.97;39.96
33913;BME280;20200;52.084;5.224;2023-04-09T04:28:43;153823.0;;;20.09;39.97
33913;BME280;20200;52.084;5.224;2023-04-09T04:30:19;153833.0;;;20.12;39.81
33913;BME280;20200;52.084;5.224;2023-04-09T04:31:56;153714.0;;;19.64;40.53
33913;BME280;20200;52.084;5.224;2023-04-09T04:33:33;153807.0;;;20.02;40.03
33913;BME280;20200;52.084;5.224;2023-04-09T04:36:45;153796.0;;;19.97;40.28
33913;BME280;20200;52.084;5.224;2023-04-09T04:38:21;153754.0;;;19.8;40.42
33913;BME280;20200;52.084;5.224;2023-04-09T04:39:59;153570.0;;;19.07;41.71
33913;BME280;20200;52.084;5.224;2023-04-09T04:43:13;153660.0;;;19.43;41.25
33913;BME280;20200;52.084;5.224;2023-04-09T04:44:49;153733.0;;;19.72;40.72
33913;BME280;20200;52.084;5.224;2023-04-09T04:46:25;153736.0;;;19.73;40.69
33913;BME280;20200;52.084;5.224;2023-04-09T04:49:39;153690.0;;;19.55;41.12
33913;BME280;20200;52.084;5.224;2023-04-09T04:51:15;153536.0;;;18.95;42.05
33913;BME280;20200;52.084;5.224;2023-04-09T04:52:52;153696.0;;;19.59;40.89
33913;BME280;20200;52.084;5.224;2023-04-09T04:54:28;153740.0;;;19.75;40.51
33913;BME280;20200;52.084;5.224;2023-04-09T04:57:40;153730.0;;;19.71;40.49
33913;BME280;20200;52.084;5.224;2023-04-09T04:59:16;153692.0;;;19.56;40.53
33913;BME280;20200;52.084;5.224;2023-04-09T05:00:52;153809.0;;;20.02;39.93
33913;BME280;20200;52.084;5.224;2023-04-09T05:04:05;153777.0;;;19.91;40.0
33913;BME280;20200;52.084;5.224;2023-04-09T05:05:41;153926.0;;;20.48;38.99
33913;BME280;20200;52.084;5.224;2023-04-09T05:07:17;153884.0;;;20.32;39.17
33913;BME280;20200;52.084;5.224;2023-04-09T05:10:29;153832.0;;;20.11;39.46
33913;BME280;20200;52.084;5.224;2023-04-09T05:12:05;153867.0;;;20.25;39.25
33913;BME280;20200;52.084;5.224;2023-04-09T05:13:42;153943.0;;;20.55;38.86
33913;BME280;20200;52.084;5.224;2023-04-09T05:16:54;153923.0;;;20.47;38.99
33913;BME280;20200;52.084;5.224;2023-04-09T05:18:31;153893.0;;;20.36;39.26
33913;BME280;20200;52.084;5.224;2023-04-09T05:20:08;153865.0;;;20.25;39.62
33913;BME280;20200;52.084;5.224;2023-04-09T05:21:45;153817.0;;;20.05;40.19
33913;BME280;20200;52.084;5.224;2023-04-09T05:26:33;153808.0;;;20.02;40.12
33913;BME280;20200;52.084;5.224;2023-04-09T05:28:09;153878.0;;;20.29;39.43
33913;BME280;20200;52.084;5.224;2023-04-09T05:31:23;153866.0;;;20.25;39.46
33913;BME280;20200;52.084;5.224;2023-04-09T05:32:59;153852.0;;;20.2;39.58
33913;BME280;20200;52.084;5.224;2023-04-09T05:34:35;153872.0;;;20.27;39.46
33913;BME280;20200;52.084;5.224;2023-04-09T05:37:51;153846.0;;;20.18;39.47
33913;BME280;20200;52.084;5.224;2023-04-09T05:39:27;153795.0;;;19.97;40.03
33913;BME280;20200;52.084;5.224;2023-04-09T05:41:04;153810.0;;;20.03;39.75
33913;BME280;20200;52.084;5.224;2023-04-09T05:42:39;153753.0;;;19.8;39.86
33913;BME280;20200;52.084;5.224;2023-04-09T05:45:52;153781.0;;;19.91;39.71
33913;BME280;20200;52.084;5.224;2023-04-09T05:47:29;153811.0;;;20.03;39.42
33913;BME280;20200;52.084;5.224;2023-04-09T05:49:05;153837.0;;;20.13;39.46
33913;BME280;20200;52.084;5.224;2023-04-09T05:52:24;153843.0;;;20.16;39.28
33913;BME280;20200;52.084;5.224;2023-04-09T05:54:02;153748.0;;;19.78;39.87
33913;BME280;20200;52.084;5.224;2023-04-09T05:55:38;153769.0;;;19.87;39.75
33913;BME280;20200;52.084;5.224;2023-04-09T05:57:14;153756.0;;;19.81;39.76
33913;BME280;20200;52.084;5.224;2023-04-09T06:00:26;153703.0;;;19.61;40.29
33913;BME280;20200;52.084;5.224;2023-04-09T06:02:03;153682.0;;;19.52;40.29
33913;BME280;20200;52.084;5.224;2023-04-09T06:03:40;153775.0;;;19.89;39.69
33913;BME280;20200;52.084;5.224;2023-04-09T06:06:54;153772.0;;;19.88;39.68
33913;BME280;20200;52.084;5.224;2023-04-09T06:08:30;153669.0;;;19.47;39.93
33913;BME280;20200;52.084;5.224;2023-04-09T06:10:07;153649.0;;;19.39;39.56
33913;BME280;20200;52.084;5.224;2023-04-09T06:13:20;153673.0;;;19.48;39.21
33913;BME280;20200;52.084;5.224;2023-04-09T06:14:56;153720.0;;;19.68;38.97
33913;BME280;20200;52.084;5.224;2023-04-09T06:16:32;153709.0;;;19.63;38.99
33913;BME280;20200;52.084;5.224;2023-04-09T06:18:09;153616.0;;;19.27;39.5
33913;BME280;20200;52.084;5.224;2023-04-09T06:21:22;153674.0;;;19.5;39.24
33913;BME280;20200;52.084;5.224;2023-04-09T06:22:59;153762.0;;;19.84;38.56
33913;BME280;20200;52.084;5.224;2023-04-09T06:24:35;153712.0;;;19.64;38.99
33913;BME280;20200;52.084;5.224;2023-04-09T06:27:48;153694.0;;;19.57;39.0
33913;BME280;20200;52.084;5.224;2023-04-09T06:29:25;153700.0;;;19.59;38.97
33913;BME280;20200;52.084;5.224;2023-04-09T06:31:01;153722.0;;;19.68;38.94
33913;BME280;20200;52.084;5.224;2023-04-09T06:34:13;153698.0;;;19.59;39.06
33913;BME280;20200;52.084;5.224;2023-04-09T06:35:49;153686.0;;;19.53;39.18
33913;BME280;20200;52.084;5.224;2023-04-09T06:37:25;153733.0;;;19.72;38.93
33913;BME280;20200;52.084;5.224;2023-04-09T06:40:38;153735.0;;;19.73;38.99
33913;BME280;20200;52.084;5.224;2023-04-09T06:42:14;153803.0;;;20.0;38.62
33913;BME280;20200;52.084;5.224;2023-04-09T06:43:50;153798.0;;;19.98;38.67
33913;BME280;20200;52.084;5.224;2023-04-09T06:45:27;153785.0;;;19.93;38.82
33913;BME280;20200;52.084;5.224;2023-04-09T06:48:40;153814.0;;;20.04;38.53
33913;BME280;20200;52.084;5.224;2023-04-09T06:50:17;153794.0;;;19.96;38.65
33913;BME280;20200;52.084;5.224;2023-04-09T06:51:53;153773.0;;;19.88;38.89
33913;BME280;20200;52.084;5.224;2023-04-09T06:55:06;153755.0;;;19.81;38.81
33913;BME280;20200;52.084;5.224;2023-04-09T06:56:43;153751.0;;;19.79;38.76
33913;BME280;20200;52.084;5.224;2023-04-09T06:58:19;153788.0;;;19.95;38.49
33913;BME280;20200;52.084;5.224;2023-04-09T07:01:32;153827.0;;;20.09;38.21
33913;BME280;20200;52.084;5.224;2023-04-09T07:03:08;153842.0;;;20.16;38.35
33913;BME280;20200;52.084;5.224;2023-04-09T07:04:45;153767.0;;;19.86;38.62
33913;BME280;20200;52.084;5.224;2023-04-09T07:06:21;153789.0;;;19.95;38.6
33913;BME280;20200;52.084;5.224;2023-04-09T07:09:33;153843.0;;;20.16;38.31
33913;BME280;20200;52.084;5.224;2023-04-09T07:11:09;153784.0;;;19.93;38.71
33913;BME280;20200;52.084;5.224;2023-04-09T07:12:45;153819.0;;;20.06;38.37
33913;BME280;20200;52.084;5.224;2023-04-09T07:15:57;153865.0;;;20.25;37.96
33913;BME280;20200;52.084;5.224;2023-04-09T07:17:34;153859.0;;;20.22;37.62
33913;BME280;20200;52.084;5.224;2023-04-09T07:19:11;153959.0;;;20.62;37.35
33913;BME280;20200;52.084;5.224;2023-04-09T07:22:24;153935.0;;;20.52;37.53
33913;BME280;20200;52.084;5.224;2023-04-09T07:24:02;153924.0;;;20.48;37.5
33913;BME280;20200;52.084;5.224;2023-04-09T07:25:39;153904.0;;;20.41;37.85
33913;BME280;20200;52.084;5.224;2023-04-09T07:27:15;153899.0;;;20.38;37.92
33913;BME280;20200;52.084;5.224;2023-04-09T07:30:28;153897.0;;;20.37;37.86
33913;BME280;20200;52.084;5.224;2023-04-09T07:32:04;153967.0;;;20.65;37.44
33913;BME280;20200;52.084;5.224;2023-04-09T07:33:41;153949.0;;;20.58;37.65
33913;BME280;20200;52.084;5.224;2023-04-09T07:36:54;153927.0;;;20.49;37.89
33913;BME280;20200;52.084;5.224;2023-04-09T07:38:30;153943.0;;;20.55;37.64
33913;BME280;20200;52.084;5.224;2023-04-09T07:40:07;153927.0;;;20.49;37.89
33913;BME280;20200;52.084;5.224;2023-04-09T07:43:20;154005.0;;;20.8;37.39
33913;BME280;20200;52.084;5.224;2023-04-09T07:44:56;153988.0;;;20.73;37.46
33913;BME280;20200;52.084;5.224;2023-04-09T07:46:32;154013.0;;;20.83;37.24
33913;BME280;20200;52.084;5.224;2023-04-09T07:48:08;154031.0;;;20.9;37.4
33913;BME280;20200;52.084;5.224;2023-04-09T07:51:20;154075.0;;;21.07;37.1
33913;BME280;20200;52.084;5.224;2023-04-09T07:52:56;154040.0;;;20.94;37.42
33913;BME280;20200;52.084;5.224;2023-04-09T07:54:33;153950.0;;;20.58;37.1
33913;BME280;20200;52.084;5.224;2023-04-09T07:57:46;153921.0;;;20.47;37.19
33913;BME280;20200;52.084;5.224;2023-04-09T07:59:22;153956.0;;;20.61;37.17
33913;BME280;20200;52.084;5.224;2023-04-09T08:00:58;153986.0;;;20.72;37.08
33913;BME280;20200;52.084;5.224;2023-04-09T08:04:10;154046.0;;;20.96;36.85
33913;BME280;20200;52.084;5.224;2023-04-09T08:05:47;154002.0;;;20.79;36.78
33913;BME280;20200;52.084;5.224;2023-04-09T08:07:23;153997.0;;;20.77;37.24
33913;BME280;20200;52.084;5.224;2023-04-09T08:09:00;154008.0;;;20.81;36.96
33913;BME280;20200;52.084;5.224;2023-04-09T08:12:13;154066.0;;;21.04;36.89
33913;BME280;20200;52.084;5.224;2023-04-09T08:13:49;154099.0;;;21.17;36.58
33913;BME280;20200;52.084;5.224;2023-04-09T08:15:26;154157.0;;;21.4;36.35
33913;BME280;20200;52.084;5.224;2023-04-09T08:18:39;154147.0;;;21.36;35.96
33913;BME280;20200;52.084;5.224;2023-04-09T08:20:15;154030.0;;;20.9;36.24
33913;BME280;20200;52.084;5.224;2023-04-09T08:21:51;154169.0;;;21.45;35.74
33913;BME280;20200;52.084;5.224;2023-04-09T08:25:04;154121.0;;;21.26;36.03
33913;BME280;20200;52.084;5.224;2023-04-09T08:26:41;154139.0;;;21.33;35.87
33913;BME280;20200;52.084;5.224;2023-04-09T08:28:18;154152.0;;;21.38;35.74
33913;BME280;20200;52.084;5.224;2023-04-09T08:31:30;154186.0;;;21.51;35.62
33913;BME280;20200;52.084;5.224;2023-04-09T08:33:07;154220.0;;;21.65;35.69
33913;BME280;20200;52.084;5.224;2023-04-09T08:34:43;154228.0;;;21.68;34.57
33913;BME280;20200;52.084;5.224;2023-04-09T08:36:20;154206.0;;;21.6;35.06
33913;BME280;20200;52.084;5.224;2023-04-09T08:39:34;154270.0;;;21.85;34.81
33913;BME280;20200;52.084;5.224;2023-04-09T08:41:16;154193.0;;;21.54;35.03
33913;BME280;20200;52.084;5.224;2023-04-09T08:42:54;154210.0;;;21.61;35.0
33913;BME280;20200;52.084;5.224;2023-04-09T08:46:09;154310.0;;;22.0;34.78
33913;BME280;20200;52.084;5.224;2023-04-09T08:47:47;154262.0;;;21.81;34.92
33913;BME280;20200;52.084;5.224;2023-04-09T08:49:24;154344.0;;;22.14;34.24
33913;BME280;20200;52.084;5.224;2023-04-09T08:51:00;154373.0;;;22.25;33.94
33913;BME280;20200;52.084;5.224;2023-04-09T08:54:15;154315.0;;;22.03;34.24
33913;BME280;20200;52.084;5.224;2023-04-09T08:55:51;154327.0;;;22.07;34.24
33913;BME280;20200;52.084;5.224;2023-04-09T08:57:27;154093.0;;;21.15;35.31
33913;BME280;20200;52.084;5.224;2023-04-09T09:00:40;154271.0;;;21.85;34.08
33913;BME280;20200;52.084;5.224;2023-04-09T09:02:16;154327.0;;;22.07;33.78
33913;BME280;20200;52.084;5.224;2023-04-09T09:03:55;154245.0;;;21.75;34.46
33913;BME280;20200;52.084;5.224;2023-04-09T09:05:35;154172.0;;;21.46;35.07
33913;BME280;20200;52.084;5.224;2023-04-09T09:09:04;154181.0;;;21.49;35.31
33913;BME280;20200;52.084;5.224;2023-04-09T09:10:42;154224.0;;;21.66;35.1
33913;BME280;20200;52.084;5.224;2023-04-09T09:12:36;154329.0;;;22.08;35.01
33913;BME280;20200;52.084;5.224;2023-04-09T09:14:14;154329.0;;;22.08;34.92
33913;BME280;20200;52.084;5.224;2023-04-09T09:17:52;154348.0;;;22.16;34.57
33913;BME280;20200;52.084;5.224;2023-04-09T09:19:31;154322.0;;;22.05;34.71
33913;BME280;20200;52.084;5.224;2023-04-09T09:21:10;154440.0;;;22.52;33.65
33913;BME280;20200;52.084;5.224;2023-04-09T09:22:48;154425.0;;;22.46;33.58
33913;BME280;20200;52.084;5.224;2023-04-09T09:24:25;154410.0;;;22.4;33.62
33913;BME280;20200;52.084;5.224;2023-04-09T09:27:46;154505.0;;;22.78;33.1
33913;BME280;20200;52.084;5.224;2023-04-09T09:29:24;154352.0;;;22.17;34.56
33913;BME280;20200;52.084;5.224;2023-04-09T09:31:07;154303.0;;;21.98;34.46
33913;BME280;20200;52.084;5.224;2023-04-09T09:32:44;154361.0;;;22.21;34.61
33913;BME280;20200;52.084;5.224;2023-04-09T09:35:59;154182.0;;;21.5;35.42
33913;BME280;20200;52.084;5.224;2023-04-09T09:37:35;154374.0;;;22.26;34.68
33913;BME280;20200;52.084;5.224;2023-04-09T09:39:14;154129.0;;;21.29;35.78
33913;BME280;20200;52.084;5.224;2023-04-09T09:42:28;154292.0;;;21.94;34.93
33913;BME280;20200;52.084;5.224;2023-04-09T09:44:06;154286.0;;;21.91;35.24
33913;BME280;20200;52.084;5.224;2023-04-09T09:45:43;154315.0;;;22.03;35.1
33913;BME280;20200;52.084;5.224;2023-04-09T09:47:22;154453.0;;;22.57;34.53
33913;BME280;20200;52.084;5.224;2023-04-09T09:50:36;154503.0;;;22.77;34.4
33913;BME280;20200;52.084;5.224;2023-04-09T09:52:13;154453.0;;;22.57;34.35
33913;BME280;20200;52.084;5.224;2023-04-09T09:53:50;154481.0;;;22.68;34.31
33913;BME280;20200;52.084;5.224;2023-04-09T09:57:09;154453.0;;;22.57;34.17
33913;BME280;20200;52.084;5.224;2023-04-09T09:58:48;154491.0;;;22.72;34.25
33913;BME280;20200;52.084;5.224;2023-04-09T10:00:31;154253.0;;;21.78;35.85
33913;BME280;20200;52.084;5.224;2023-04-09T10:02:15;154447.0;;;22.55;34.78
33913;BME280;20200;52.084;5.224;2023-04-09T10:05:32;154567.0;;;23.02;33.93
33913;BME280;20200;52.084;5.224;2023-04-09T10:07:10;154499.0;;;22.75;34.99
33913;BME280;20200;52.084;5.224;2023-04-09T10:08:48;154488.0;;;22.71;34.35
33913;BME280;20200;52.084;5.224;2023-04-09T10:10:26;154670.0;;;23.43;33.54
33913;BME280;20200;52.084;5.224;2023-04-09T10:13:45;154530.0;;;22.88;34.42
33913;BME280;20200;52.084;5.224;2023-04-09T10:15:27;154167.0;;;21.44;36.06
33913;BME280;20200;52.084;5.224;2023-04-09T10:17:04;154437.0;;;22.51;34.82
33913;BME280;20200;52.084;5.224;2023-04-09T10:20:23;154441.0;;;22.52;34.58
33913;BME280;20200;52.084;5.224;2023-04-09T10:22:04;154418.0;;;22.43;34.82
33913;BME280;20200;52.084;5.224;2023-04-09T10:23:44;154504.0;;;22.77;34.92
33913;BME280;20200;52.084;5.224;2023-04-09T10:25:23;154614.0;;;23.21;33.99
33913;BME280;20200;52.084;5.224;2023-04-09T10:28:45;154694.0;;;23.52;33.22
33913;BME280;20200;52.084;5.224;2023-04-09T10:30:30;154312.0;;;22.01;35.58
33913;BME280;20200;52.084;5.224;2023-04-09T10:32:06;154519.0;;;22.83;34.1
33913;BME280;20200;52.084;5.224;2023-04-09T10:33:44;154321.0;;;22.05;35.18
33913;BME280;20200;52.084;5.224;2023-04-09T10:37:00;154490.0;;;22.72;34.71
33913;BME280;20200;52.084;5.224;2023-04-09T10:38:39;154671.0;;;23.43;33.21
33913;BME280;20200;52.084;5.224;2023-04-09T10:40:18;154691.0;;;23.51;33.46
33913;BME280;20200;52.084;5.224;2023-04-09T10:41:55;154702.0;;;23.55;33.18
33913;BME280;20200;52.084;5.224;2023-04-09T10:45:12;154705.0;;;23.57;33.32
33913;BME280;20200;52.084;5.224;2023-04-09T10:46:51;154710.0;;;23.59;33.69
33913;BME280;20200;52.084;5.224;2023-04-09T10:48:31;154849.0;;;24.13;33.18
33913;BME280;20200;52.084;5.224;2023-04-09T10:50:17;154917.0;;;24.41;32.89
33913;BME280;20200;52.084;5.224;2023-04-09T10:53:37;154925.0;;;24.44;32.03
33913;BME280;20200;52.084;5.224;2023-04-09T10:55:32;154710.0;;;23.59;31.87
33913;BME280;20200;52.084;5.224;2023-04-09T10:57:13;154675.0;;;23.45;32.79
33913;BME280;20200;52.084;5.224;2023-04-09T10:58:53;154597.0;;;23.14;33.61
33913;BME280;20200;52.084;5.224;2023-04-09T11:02:08;154469.0;;;22.63;34.51
33913;BME280;20200;52.084;5.224;2023-04-09T11:04:06;154697.0;;;23.53;33.35
33913;BME280;20200;52.084;5.224;2023-04-09T11:05:46;154599.0;;;23.15;34.08
33913;BME280;20200;52.084;5.224;2023-04-09T11:07:24;154720.0;;;23.63;33.78
33913;BME280;20200;52.084;5.224;2023-04-09T11:09:01;154628.0;;;23.26;33.74